sensor_id;sensor_type;location;lat;lon;timestamp;P1;durP1;ratioP1;P2;durP2;ratioP2
42666;SDS011;28280;49.646;14.130;2023-03-11T00:03:06;1.00;;;0.70;;
42666;SDS011;28280;49.646;14.130;2023-03-11T00:13:28;1.67;;;0.60;;
42666;SDS011;28280;49.646;14.130;2023-03-11T00:23:50;1.00;;;0.68;;
42666;SDS011;28280;49.646;14.130;2023-03-11T00:34:11;1.60;;;0.90;;
42666;SDS011;28280;49.646;14.130;2023-03-11T00:44:32;1.70;;;0.90;;
42666;SDS011;28280;49.646;14.130;2023-03-11T00:54:54;1.13;;;0.80;;
42666;SDS011;28280;49.646;14.130;2023-03-11T01:05:17;1.30;;;0.90;;
42666;SDS011;28280;49.646;14.130;2023-03-11T01:15:39;1.60;;;0.93;;
42666;SDS011;28280;49.646;14.130;2023-03-11T01:26:00;2.22;;;1.30;;
42666;SDS011;28280;49.646;14.130;2023-03-11T01:36:21;1.70;;;1.50;;
42666;SDS011;28280;49.646;14.130;2023-03-11T01:57:21;2.15;;;1.50;;
42666;SDS011;28280;49.646;14.130;2023-03-11T02:07:43;2.38;;;1.80;;
42666;SDS011;28280;49.646;14.130;2023-03-11T02:18:08;2.35;;;1.67;;
42666;SDS011;28280;49.646;14.130;2023-03-11T02:28:36;2.85;;;1.67;;
42666;SDS011;28280;49.646;14.130;2023-03-11T02:38:59;2.05;;;1.63;;
42666;SDS011;28280;49.646;14.130;2023-03-11T02:49:22;2.60;;;1.58;;
42666;SDS011;28280;49.646;14.130;2023-03-11T02:59:44;3.08;;;1.65;;
42666;SDS011;28280;49.646;14.130;2023-03-11T03:10:07;2.63;;;1.77;;
42666;SDS011;28280;49.646;14.130;2023-03-11T03:20:29;2.75;;;1.63;;
42666;SDS011;28280;49.646;14.130;2023-03-11T03:30:53;2.50;;;1.70;;
42666;SDS011;28280;49.646;14.130;2023-03-11T03:41:15;2.10;;;1.42;;
42666;SDS011;28280;49.646;14.130;2023-03-11T03:51:37;2.22;;;1.70;;
42666;SDS011;28280;49.646;14.130;2023-03-11T04:02:24;2.20;;;1.47;;
42666;SDS011;28280;49.646;14.130;2023-03-11T04:12:47;2.10;;;1.60;;
42666;SDS011;28280;49.646;14.130;2023-03-11T04:23:09;2.40;;;1.55;;
42666;SDS011;28280;49.646;14.130;2023-03-11T04:33:31;2.15;;;1.42;;
42666;SDS011;28280;49.646;14.130;2023-03-11T04:43:52;2.08;;;1.55;;
42666;SDS011;28280;49.646;14.130;2023-03-11T04:54:14;3.60;;;1.73;;
42666;SDS011;28280;49.646;14.130;2023-03-11T05:04:35;2.20;;;1.50;;
42666;SDS011;28280;49.646;14.130;2023-03-11T05:14:57;4.40;;;1.33;;
42666;SDS011;28280;49.646;14.130;2023-03-11T05:25:18;1.65;;;1.35;;
42666;SDS011;28280;49.646;14.130;2023-03-11T05:35:40;1.92;;;1.45;;
42666;SDS011;28280;49.646;14.130;2023-03-11T05:46:03;2.00;;;1.40;;
42666;SDS011;28280;49.646;14.130;2023-03-11T05:56:25;1.63;;;1.27;;
42666;SDS011;28280;49.646;14.130;2023-03-11T06:06:47;2.08;;;1.27;;
42666;SDS011;28280;49.646;14.130;2023-03-11T06:17:12;1.60;;;1.23;;
42666;SDS011;28280;49.646;14.130;2023-03-11T06:27:33;1.33;;;1.20;;
42666;SDS011;28280;49.646;14.130;2023-03-11T06:37:55;1.83;;;1.23;;
42666;SDS011;28280;49.646;14.130;2023-03-11T06:48:16;2.30;;;1.30;;
42666;SDS011;28280;49.646;14.130;2023-03-11T06:58:39;2.08;;;1.27;;
42666;SDS011;28280;49.646;14.130;2023-03-11T07:09:03;2.67;;;1.40;;
42666;SDS011;28280;49.646;14.130;2023-03-11T07:19:27;2.03;;;1.30;;
42666;SDS011;28280;49.646;14.130;2023-03-11T07:29:48;3.17;;;1.52;;
42666;SDS011;28280;49.646;14.130;2023-03-11T07:40:10;2.53;;;1.45;;
42666;SDS011;28280;49.646;14.130;2023-03-11T07:50:31;1.80;;;1.35;;
42666;SDS011;28280;49.646;14.130;2023-03-11T08:00:53;2.45;;;1.38;;
42666;SDS011;28280;49.646;14.130;2023-03-11T08:11:17;1.88;;;1.30;;
42666;SDS011;28280;49.646;14.130;2023-03-11T08:21:39;1.92;;;1.27;;
42666;SDS011;28280;49.646;14.130;2023-03-11T08:32:01;2.17;;;1.30;;
42666;SDS011;28280;49.646;14.130;2023-03-11T08:42:22;1.83;;;1.08;;
42666;SDS011;28280;49.646;14.130;2023-03-11T08:52:43;2.17;;;1.35;;
42666;SDS011;28280;49.646;14.130;2023-03-11T09:03:04;3.35;;;1.50;;
42666;SDS011;28280;49.646;14.130;2023-03-11T09:13:26;2.17;;;1.40;;
42666;SDS011;28280;49.646;14.130;2023-03-11T09:23:48;2.10;;;1.20;;
42666;SDS011;28280;49.646;14.130;2023-03-11T09:34:10;2.78;;;1.42;;
42666;SDS011;28280;49.646;14.130;2023-03-11T09:54:58;2.45;;;1.38;;
42666;SDS011;28280;49.646;14.130;2023-03-11T10:05:26;2.10;;;1.40;;
42666;SDS011;28280;49.646;14.130;2023-03-11T10:15:59;1.48;;;1.10;;
42666;SDS011;28280;49.646;14.130;2023-03-11T10:26:35;2.07;;;1.17;;
42666;SDS011;28280;49.646;14.130;2023-03-11T10:37:02;2.45;;;1.30;;
42666;SDS011;28280;49.646;14.130;2023-03-11T10:47:31;1.90;;;1.30;;
42666;SDS011;28280;49.646;14.130;2023-03-11T10:57:52;2.53;;;1.20;;
42666;SDS011;28280;49.646;14.130;2023-03-11T11:08:24;1.90;;;1.45;;
42666;SDS011;28280;49.646;14.130;2023-03-11T11:18:49;1.65;;;1.30;;
42666;SDS011;28280;49.646;14.130;2023-03-11T11:29:23;1.75;;;1.10;;
42666;SDS011;28280;49.646;14.130;2023-03-11T11:39:51;3.00;;;1.35;;
42666;SDS011;28280;49.646;14.130;2023-03-11T11:50:22;1.65;;;1.10;;
42666;SDS011;28280;49.646;14.130;2023-03-11T12:32:29;3.08;;;1.40;;
42666;SDS011;28280;49.646;14.130;2023-03-11T12:42:56;1.75;;;1.10;;
42666;SDS011;28280;49.646;14.130;2023-03-11T12:53:18;1.70;;;1.15;;
42666;SDS011;28280;49.646;14.130;2023-03-11T13:14:34;2.05;;;1.08;;
42666;SDS011;28280;49.646;14.130;2023-03-11T13:24:55;1.70;;;1.05;;
42666;SDS011;28280;49.646;14.130;2023-03-11T13:56:56;2.88;;;1.10;;
42666;SDS011;28280;49.646;14.130;2023-03-11T14:07:21;2.85;;;1.88;;
42666;SDS011;28280;49.646;14.130;2023-03-11T14:17:44;1.98;;;1.08;;
42666;SDS011;28280;49.646;14.130;2023-03-11T14:28:12;2.47;;;1.23;;
42666;SDS011;28280;49.646;14.130;2023-03-11T14:38:41;2.38;;;1.40;;
42666;SDS011;28280;49.646;14.130;2023-03-11T14:49:04;2.83;;;1.35;;
42666;SDS011;28280;49.646;14.130;2023-03-11T14:59:27;2.40;;;1.27;;
42666;SDS011;28280;49.646;14.130;2023-03-11T15:09:51;2.22;;;1.33;;
42666;SDS011;28280;49.646;14.130;2023-03-11T15:20:23;3.53;;;1.33;;
42666;SDS011;28280;49.646;14.130;2023-03-11T15:30:47;2.42;;;1.20;;
42666;SDS011;28280;49.646;14.130;2023-03-11T15:41:09;2.85;;;1.23;;
42666;SDS011;28280;49.646;14.130;2023-03-11T15:51:30;2.47;;;1.42;;
42666;SDS011;28280;49.646;14.130;2023-03-11T16:01:52;1.83;;;1.10;;
42666;SDS011;28280;49.646;14.130;2023-03-11T16:12:14;3.10;;;1.50;;
42666;SDS011;28280;49.646;14.130;2023-03-11T16:22:37;3.45;;;1.98;;
42666;SDS011;28280;49.646;14.130;2023-03-11T16:32:58;2.67;;;1.20;;
42666;SDS011;28280;49.646;14.130;2023-03-11T16:43:23;2.58;;;1.45;;
42666;SDS011;28280;49.646;14.130;2023-03-11T16:53:45;4.03;;;1.38;;
42666;SDS011;28280;49.646;14.130;2023-03-11T17:04:06;3.13;;;1.27;;
42666;SDS011;28280;49.646;14.130;2023-03-11T17:14:28;3.40;;;1.27;;
42666;SDS011;28280;49.646;14.130;2023-03-11T17:24:50;4.32;;;1.70;;
42666;SDS011;28280;49.646;14.130;2023-03-11T17:35:11;3.15;;;1.77;;
42666;SDS011;28280;49.646;14.130;2023-03-11T17:45:32;3.25;;;1.67;;
42666;SDS011;28280;49.646;14.130;2023-03-11T17:55:53;2.13;;;1.40;;
42666;SDS011;28280;49.646;14.130;2023-03-11T18:06:14;1.88;;;1.42;;
42666;SDS011;28280;49.646;14.130;2023-03-11T18:16:36;4.03;;;1.70;;
42666;SDS011;28280;49.646;14.130;2023-03-11T18:26:57;3.28;;;1.80;;
42666;SDS011;28280;49.646;14.130;2023-03-11T18:37:18;4.53;;;1.88;;
42666;SDS011;28280;49.646;14.130;2023-03-11T18:47:40;3.78;;;1.85;;
42666;SDS011;28280;49.646;14.130;2023-03-11T18:58:02;3.20;;;2.10;;
42666;SDS011;28280;49.646;14.130;2023-03-11T19:08:23;4.82;;;2.30;;
42666;SDS011;28280;49.646;14.130;2023-03-11T19:18:46;3.25;;;2.13;;
42666;SDS011;28280;49.646;14.130;2023-03-11T19:29:08;4.03;;;2.33;;
42666;SDS011;28280;49.646;14.130;2023-03-11T19:39:29;3.88;;;2.28;;
42666;SDS011;28280;49.646;14.130;2023-03-11T19:49:50;3.35;;;2.08;;
42666;SDS011;28280;49.646;14.130;2023-03-11T20:00:12;6.10;;;3.05;;
42666;SDS011;28280;49.646;14.130;2023-03-11T20:10:37;3.67;;;2.17;;
42666;SDS011;28280;49.646;14.130;2023-03-11T20:21:02;3.88;;;2.13;;
42666;SDS011;28280;49.646;14.130;2023-03-11T20:31:25;4.45;;;2.15;;
42666;SDS011;28280;49.646;14.130;2023-03-11T20:41:47;4.43;;;2.10;;
42666;SDS011;28280;49.646;14.130;2023-03-11T20:52:08;4.97;;;2.17;;
42666;SDS011;28280;49.646;14.130;2023-03-11T21:02:30;3.35;;;1.88;;
42666;SDS011;28280;49.646;14.130;2023-03-11T21:12:54;4.13;;;2.20;;
42666;SDS011;28280;49.646;14.130;2023-03-11T21:23:16;5.13;;;2.35;;
42666;SDS011;28280;49.646;14.130;2023-03-11T21:33:38;4.43;;;2.22;;
42666;SDS011;28280;49.646;14.130;2023-03-11T21:44:00;3.38;;;2.20;;
42666;SDS011;28280;49.646;14.130;2023-03-11T21:54:21;3.28;;;2.05;;
42666;SDS011;28280;49.646;14.130;2023-03-11T22:04:43;4.03;;;2.03;;
42666;SDS011;28280;49.646;14.130;2023-03-11T22:15:04;4.43;;;2.42;;
42666;SDS011;28280;49.646;14.130;2023-03-11T22:25:26;3.80;;;2.45;;
42666;SDS011;28280;49.646;14.130;2023-03-11T22:35:52;4.88;;;2.65;;
42666;SDS011;28280;49.646;14.130;2023-03-11T22:46:14;4.93;;;2.40;;
42666;SDS011;28280;49.646;14.130;2023-03-11T22:56:36;3.67;;;2.28;;
42666;SDS011;28280;49.646;14.130;2023-03-11T23:06:57;5.35;;;2.78;;
42666;SDS011;28280;49.646;14.130;2023-03-11T23:17:18;4.25;;;2.30;;
42666;SDS011;28280;49.646;14.130;2023-03-11T23:27:40;4.40;;;2.42;;
42666;SDS011;28280;49.646;14.130;2023-03-11T23:38:02;4.68;;;2.05;;
42666;SDS011;28280;49.646;14.130;2023-03-11T23:48:24;5.53;;;2.30;;
42666;SDS011;28280;49.646;14.130;2023-03-11T23:58:45;5.13;;;2.35;;
